Time;durP1;ratioP1;P1;durP2;ratioP2;P2;SDS_P1;SDS_P2;PMS_P1;PMS_P2;Temp;Humidity;BMP_temperature;BMP_pressure;BME280_temperature;BME280_humidity;BME280_pressure;Samples;Min_cycle;Max_cycle;Signal;HPM_P1;HPM_P2
2021/08/14 00:00:38;0.00;0.00;0.62;0.00;0.00;0.62;7.53;4.33;;;27.90;30.90;;;;;;2253980;61;20759;-56
2021/08/14 00:03:22;0.00;0.00;0.62;0.00;0.00;0.62;4.20;3.20;;;27.90;30.80;;;;;;2253577;61;20443;-57
2021/08/14 00:06:07;0.00;0.00;0.62;0.00;0.00;0.62;5.60;3.20;;;27.90;30.70;;;;;;2253448;61;20368;-57
2021/08/14 00:08:52;0.00;0.00;0.62;0.00;0.00;0.62;8.30;3.57;;;27.90;30.60;;;;;;2253338;61;20395;-59
2021/08/14 00:11:36;0.00;0.00;0.62;0.00;0.00;0.62;9.40;3.17;;;27.90;30.60;;;;;;2253576;61;20416;-56
2021/08/14 00:14:20;0.00;0.00;0.62;0.00;0.00;0.62;3.60;3.03;;;27.90;30.60;;;;;;2253785;61;20367;-56
2021/08/14 00:17:07;0.00;0.00;0.62;0.00;0.00;0.62;6.43;3.97;;;27.80;30.60;;;;;;2253480;61;20454;-52
2021/08/14 00:19:52;0.00;0.00;0.62;0.00;0.00;0.62;5.70;3.93;;;27.80;30.60;;;;;;2253243;61;20367;-57
2021/08/14 00:22:36;0.00;0.00;0.62;0.00;0.00;0.62;6.67;3.50;;;27.70;30.60;;;;;;2253927;61;20395;-57
2021/08/14 00:25:21;0.00;0.00;0.62;0.00;0.00;0.62;4.50;3.40;;;27.70;30.60;;;;;;2253535;61;20395;-58
2021/08/14 00:28:06;0.00;0.00;0.62;0.00;0.00;0.62;6.87;3.10;;;27.60;30.70;;;;;;2253388;61;20395;-55
2021/08/14 00:30:50;0.00;0.00;0.62;0.00;0.00;0.62;4.47;3.10;;;27.60;30.70;;;;;;2253554;61;20380;-55
2021/08/14 00:33:36;0.00;0.00;0.62;0.00;0.00;0.62;5.23;3.43;;;27.60;30.80;;;;;;2253548;61;20692;-56
2021/08/14 00:36:21;0.00;0.00;0.62;0.00;0.00;0.62;5.20;3.13;;;27.50;30.80;;;;;;2256161;61;20367;-53
2021/08/14 00:39:05;0.00;0.00;0.62;0.00;0.00;0.62;5.30;3.40;;;27.50;30.80;;;;;;2252966;61;20384;-54
2021/08/14 00:41:51;0.00;0.00;0.62;0.00;0.00;0.62;6.23;3.90;;;27.40;30.80;;;;;;2252755;61;20613;-55
2021/08/14 00:44:35;0.00;0.00;0.62;0.00;0.00;0.62;7.93;3.27;;;27.40;30.90;;;;;;2253515;61;20367;-56
2021/08/14 00:47:24;0.00;0.00;0.62;0.00;0.00;0.62;6.30;4.37;;;27.40;30.90;;;;;;2253056;61;20593;-53
2021/08/14 00:50:12;0.00;0.00;0.62;0.00;0.00;0.62;7.73;3.60;;;27.30;31.00;;;;;;2252570;61;20432;-54
2021/08/14 00:52:56;0.00;0.00;0.62;0.00;0.00;0.62;5.70;3.40;;;27.30;31.00;;;;;;2253369;61;20371;-54
2021/08/14 00:55:42;0.00;0.00;0.62;0.00;0.00;0.62;4.97;3.13;;;27.30;31.10;;;;;;2253129;61;20714;-55
2021/08/14 00:58:27;0.00;0.00;0.62;0.00;0.00;0.62;4.93;3.60;;;27.30;31.20;;;;;;2252970;61;20399;-53
2021/08/14 01:01:12;0.00;0.00;0.62;0.00;0.00;0.62;4.13;3.20;;;27.20;31.10;;;;;;2253226;61;20388;-55
2021/08/14 01:03:57;0.00;0.00;0.62;0.00;0.00;0.62;3.73;2.93;;;27.20;31.20;;;;;;2252791;61;20368;-55
2021/08/14 01:06:43;0.00;0.00;0.62;0.00;0.00;0.62;5.07;2.60;;;27.20;31.30;;;;;;2253227;61;20757;-60
2021/08/14 01:09:28;0.00;0.00;0.62;0.00;0.00;0.62;5.00;3.70;;;27.20;31.20;;;;;;2252934;61;20427;-50
2021/08/14 01:12:15;0.00;0.00;0.62;0.00;0.00;0.62;4.03;3.13;;;27.20;31.30;;;;;;2252702;61;20371;-52
2021/08/14 01:15:01;0.00;0.00;0.62;0.00;0.00;0.62;5.00;3.13;;;27.20;31.40;;;;;;2253310;61;20364;-52
2021/08/14 01:17:47;0.00;0.00;0.62;0.00;0.00;0.62;5.40;3.10;;;27.20;31.40;;;;;;2253108;61;20367;-55
2021/08/14 01:20:31;0.00;0.00;0.62;0.00;0.00;0.62;5.27;3.40;;;27.20;31.30;;;;;;2252542;61;20756;-52
2021/08/14 01:23:17;0.00;0.00;0.62;0.00;0.00;0.62;4.73;3.23;;;27.20;31.20;;;;;;2255758;61;20759;-55
2021/08/14 01:26:06;0.00;0.00;0.62;0.00;0.00;0.62;4.90;3.20;;;27.10;31.10;;;;;;2252856;61;20367;-52
2021/08/14 01:28:54;0.00;0.00;0.62;0.00;0.00;0.62;5.87;3.13;;;27.10;31.10;;;;;;2253098;61;20400;-54
2021/08/14 01:31:41;0.00;0.00;0.62;0.00;0.00;0.62;4.30;2.70;;;27.10;31.20;;;;;;2253030;61;20392;-53
2021/08/14 01:34:25;0.00;0.00;0.62;0.00;0.00;0.62;4.40;3.00;;;27.10;31.20;;;;;;2252715;61;20402;-52
2021/08/14 01:37:10;0.00;0.00;0.62;0.00;0.00;0.62;4.00;2.80;;;27.00;31.20;;;;;;2253367;61;20394;-51
2021/08/14 01:39:55;0.00;0.00;0.62;0.00;0.00;0.62;9.03;3.20;;;27.00;31.20;;;;;;2252845;61;20399;-53
2021/08/14 01:42:40;0.00;0.00;0.62;0.00;0.00;0.62;4.10;3.03;;;27.00;31.40;;;;;;2252766;61;20383;-56
2021/08/14 01:45:26;0.00;0.00;0.62;0.00;0.00;0.62;4.10;2.47;;;27.00;31.40;;;;;;2253270;61;20363;-53
2021/08/14 01:48:10;0.00;0.00;0.62;0.00;0.00;0.62;5.63;2.50;;;27.00;31.40;;;;;;2252803;61;20387;-53
2021/08/14 01:50:55;0.00;0.00;0.62;0.00;0.00;0.62;5.27;2.67;;;27.00;31.40;;;;;;2253256;61;20414;-51
2021/08/14 01:53:46;0.00;0.00;0.62;0.00;0.00;0.62;3.80;2.73;;;27.00;31.40;;;;;;2252967;61;20371;-53
2021/08/14 01:56:32;0.00;0.00;0.62;0.00;0.00;0.62;3.53;2.30;;;27.00;31.40;;;;;;2252923;61;20407;-50
2021/08/14 01:59:16;0.00;0.00;0.62;0.00;0.00;0.62;4.37;2.53;;;27.10;32.10;;;;;;2253245;61;20431;-53
2021/08/14 02:02:03;0.00;0.00;0.62;0.00;0.00;0.62;3.73;2.20;;;27.10;31.40;;;;;;2255206;61;20504;-50
2021/08/14 02:04:48;0.00;0.00;0.62;0.00;0.00;0.62;3.20;2.33;;;27.10;31.30;;;;;;2253496;61;20372;-52
2021/08/14 02:07:32;0.00;0.00;0.62;0.00;0.00;0.62;4.07;2.90;;;27.10;31.30;;;;;;2253851;61;20355;-54
2021/08/14 02:10:17;0.00;0.00;0.62;0.00;0.00;0.62;5.37;2.60;;;27.00;31.20;;;;;;2253247;61;20368;-53
2021/08/14 02:13:02;0.00;0.00;0.62;0.00;0.00;0.62;4.07;2.47;;;27.00;31.30;;;;;;2254103;61;20435;-52
2021/08/14 02:15:46;0.00;0.00;0.62;0.00;0.00;0.62;5.83;3.10;;;27.00;31.20;;;;;;2253550;61;20427;-52
2021/08/14 02:18:32;0.00;0.00;0.62;0.00;0.00;0.62;3.80;2.40;;;27.00;31.20;;;;;;2253276;61;20352;-56
2021/08/14 02:21:17;0.00;0.00;0.62;0.00;0.00;0.62;3.67;2.77;;;27.00;31.30;;;;;;2256183;61;20786;-53
2021/08/14 02:24:02;0.00;0.00;0.62;0.00;0.00;0.62;7.20;3.17;;;26.90;31.30;;;;;;2253530;61;20399;-56
2021/08/14 02:26:46;0.00;0.00;0.62;0.00;0.00;0.62;3.90;3.10;;;26.90;31.30;;;;;;2253408;61;20668;-53
2021/08/14 02:29:33;0.00;0.00;0.62;0.00;0.00;0.62;4.83;3.33;;;26.90;31.30;;;;;;2253696;61;20391;-51
2021/08/14 02:32:18;0.00;0.00;0.62;0.00;0.00;0.62;6.07;3.50;;;26.80;31.20;;;;;;2253226;61;20411;-52
2021/08/14 02:35:04;0.00;0.00;0.62;0.00;0.00;0.62;4.40;3.17;;;26.80;31.20;;;;;;2253526;61;20435;-50
2021/08/14 02:37:50;0.00;0.00;0.62;0.00;0.00;0.62;4.83;3.13;;;26.70;31.20;;;;;;2253592;61;20673;-54
2021/08/14 02:40:35;0.00;0.00;0.62;0.00;0.00;0.62;4.20;2.90;;;26.80;31.20;;;;;;2253141;61;20448;-53
2021/08/14 02:43:20;0.00;0.00;0.62;0.00;0.00;0.62;4.00;3.43;;;26.70;31.20;;;;;;2253811;61;20399;-55
2021/08/14 02:46:05;0.00;0.00;0.62;0.00;0.00;0.62;4.87;3.20;;;26.70;31.20;;;;;;2253444;61;20374;-51
2021/08/14 02:48:49;0.00;0.00;0.62;0.00;0.00;0.62;5.50;2.90;;;26.60;31.10;;;;;;2252996;61;20387;-51
2021/08/14 02:51:35;0.00;0.00;0.62;0.00;0.00;0.62;6.13;3.40;;;26.60;31.10;;;;;;2253765;61;20426;-53
2021/08/14 02:54:19;0.00;0.00;0.62;0.00;0.00;0.62;4.87;3.07;;;26.60;31.20;;;;;;2253473;61;20444;-55
2021/08/14 02:57:04;0.00;0.00;0.62;0.00;0.00;0.62;6.03;3.23;;;26.50;31.30;;;;;;2253570;61;20439;-54
2021/08/14 02:59:48;0.00;0.00;0.62;0.00;0.00;0.62;5.77;3.10;;;26.50;31.30;;;;;;2253304;61;20364;-51
2021/08/14 03:02:33;0.00;0.00;0.62;0.00;0.00;0.62;7.37;3.60;;;26.50;31.40;;;;;;2253102;61;20794;-54
2021/08/14 03:05:18;0.00;0.00;0.62;0.00;0.00;0.62;4.00;2.80;;;26.50;31.40;;;;;;2253772;61;20496;-50
2021/08/14 03:08:07;0.00;0.00;0.62;0.00;0.00;0.62;5.20;3.20;;;26.50;31.50;;;;;;2253391;61;20391;-54
2021/08/14 03:10:51;0.00;0.00;0.62;0.00;0.00;0.62;6.40;3.53;;;26.40;31.50;;;;;;2253001;61;20380;-54
2021/08/14 03:13:36;0.00;0.00;0.62;0.00;0.00;0.62;5.20;2.90;;;26.40;31.50;;;;;;2253426;61;20352;-55
2021/08/14 03:16:20;0.00;0.00;0.62;0.00;0.00;0.62;5.17;3.10;;;26.40;31.50;;;;;;2253253;61;20423;-55
2021/08/14 03:19:05;0.00;0.00;0.62;0.00;0.00;0.62;7.67;3.77;;;26.30;31.60;;;;;;2253669;61;20744;-56
2021/08/14 03:21:49;0.00;0.00;0.62;0.00;0.00;0.62;7.73;3.17;;;26.30;31.60;;;;;;2253672;61;20732;-55
2021/08/14 03:24:35;0.00;0.00;0.62;0.00;0.00;0.62;5.63;3.80;;;26.30;31.70;;;;;;2252795;61;20484;-55
2021/08/14 03:27:20;0.00;0.00;0.62;0.00;0.00;0.62;5.40;3.00;;;26.20;31.70;;;;;;2253690;61;20458;-56
2021/08/14 03:30:07;0.00;0.00;0.62;0.00;0.00;0.62;4.97;3.00;;;26.20;31.70;;;;;;2253048;61;20406;-53
2021/08/14 03:32:52;0.00;0.00;0.62;0.00;0.00;0.62;5.33;3.17;;;26.20;31.90;;;;;;2252840;61;20383;-57
2021/08/14 03:35:37;0.00;0.00;0.62;0.00;0.00;0.62;5.97;3.30;;;26.10;31.80;;;;;;2253479;61;20464;-54
2021/08/14 03:38:22;0.00;0.00;0.62;0.00;0.00;0.62;4.43;3.30;;;26.10;31.90;;;;;;2252993;61;20468;-55
2021/08/14 03:41:08;0.00;0.00;0.62;0.00;0.00;0.62;7.57;3.23;;;26.10;31.90;;;;;;2253525;61;20483;-56
2021/08/14 03:43:53;0.00;0.00;0.62;0.00;0.00;0.62;5.07;2.97;;;26.00;31.90;;;;;;2253801;61;20363;-53
2021/08/14 03:46:37;0.00;0.00;0.62;0.00;0.00;0.62;8.93;3.60;;;26.00;32.00;;;;;;2253367;61;20616;-51
2021/08/14 03:49:22;0.00;0.00;0.62;0.00;0.00;0.62;4.80;2.83;;;26.00;32.00;;;;;;2253474;61;20415;-51
2021/08/14 03:52:07;0.00;0.00;0.62;0.00;0.00;0.62;4.87;3.30;;;26.00;32.10;;;;;;2253337;61;20464;-54
2021/08/14 03:54:51;0.00;0.00;0.62;0.00;0.00;0.62;4.50;2.70;;;26.00;32.10;;;;;;2253251;61;20430;-51
2021/08/14 03:57:37;0.00;0.00;0.62;0.00;0.00;0.62;6.13;2.87;;;25.90;32.10;;;;;;2253719;61;20379;-53
2021/08/14 04:00:22;0.00;0.00;0.62;0.00;0.00;0.62;4.70;3.13;;;25.90;32.20;;;;;;2253019;61;20476;-52
2021/08/14 04:03:06;0.00;0.00;0.62;0.00;0.00;0.62;4.90;2.90;;;25.90;32.30;;;;;;2253505;61;20403;-56
2021/08/14 04:05:51;0.00;0.00;0.62;0.00;0.00;0.62;7.70;3.10;;;25.80;32.30;;;;;;2253604;61;20387;-51
2021/08/14 04:08:35;0.00;0.00;0.62;0.00;0.00;0.62;6.53;2.90;;;25.80;32.40;;;;;;2253078;61;20447;-52
2021/08/14 04:11:20;0.00;0.00;0.62;0.00;0.00;0.62;5.53;3.47;;;25.80;32.40;;;;;;2253543;61;20427;-52
2021/08/14 04:14:06;0.00;0.00;0.62;0.00;0.00;0.62;4.37;2.67;;;25.70;32.40;;;;;;2253237;61;20435;-51
2021/08/14 04:16:50;0.00;0.00;0.62;0.00;0.00;0.62;3.90;2.73;;;25.70;32.50;;;;;;2253167;61;20623;-51
2021/08/14 04:19:35;0.00;0.00;0.62;0.00;0.00;0.62;5.00;2.80;;;25.70;32.60;;;;;;2253585;61;20403;-52
2021/08/14 04:22:20;0.00;0.00;0.62;0.00;0.00;0.62;5.90;3.03;;;25.70;32.70;;;;;;2253333;61;20636;-52
2021/08/14 04:25:07;0.00;0.00;0.62;0.00;0.00;0.62;5.60;2.87;;;25.60;32.60;;;;;;2253278;61;20415;-49
2021/08/14 04:27:51;0.00;0.00;0.62;0.00;0.00;0.62;5.70;3.30;;;25.60;32.70;;;;;;2253730;61;20460;-55
2021/08/14 04:30:37;0.00;0.00;0.62;0.00;0.00;0.62;6.27;3.17;;;25.60;32.80;;;;;;2252784;61;20414;-50
2021/08/14 04:33:22;0.00;0.00;0.62;0.00;0.00;0.62;4.00;2.80;;;25.50;32.80;;;;;;2253367;61;20707;-54
2021/08/14 04:36:06;0.00;0.00;0.62;0.00;0.00;0.62;9.43;3.37;;;25.50;32.80;;;;;;2253240;61;20480;-55
2021/08/14 04:38:51;0.00;0.00;0.62;0.00;0.00;0.62;4.47;2.90;;;25.50;32.90;;;;;;2252938;61;20897;-50
2021/08/14 04:41:35;0.00;0.00;0.62;0.00;0.00;0.62;4.87;3.07;;;25.50;33.00;;;;;;2253510;61;20464;-50
2021/08/14 04:44:20;0.00;0.00;0.62;0.00;0.00;0.62;5.90;2.93;;;25.40;32.90;;;;;;2253353;61;20364;-52
2021/08/14 04:47:05;0.00;0.00;0.62;0.00;0.00;0.62;7.43;3.00;;;25.40;33.00;;;;;;2253024;61;20465;-54
2021/08/14 04:49:50;0.00;0.00;0.62;0.00;0.00;0.62;2.97;2.33;;;25.40;33.10;;;;;;2253299;61;20398;-51
2021/08/14 04:52:35;0.00;0.00;0.62;0.00;0.00;0.62;5.03;3.07;;;25.40;33.10;;;;;;2253014;61;20419;-53
2021/08/14 04:55:19;0.00;0.00;0.62;0.00;0.00;0.62;5.60;2.47;;;25.40;33.20;;;;;;2253313;61;20634;-51
2021/08/14 04:58:04;0.00;0.00;0.62;0.00;0.00;0.62;4.30;2.53;;;25.30;33.20;;;;;;2253400;61;20357;-52
2021/08/14 05:00:48;0.00;0.00;0.62;0.00;0.00;0.62;6.03;3.23;;;25.30;33.30;;;;;;2252853;61;20423;-52
2021/08/14 05:03:34;0.00;0.00;0.62;0.00;0.00;0.62;7.40;3.20;;;25.30;33.40;;;;;;2253573;61;20360;-51
2021/08/14 05:06:19;0.00;0.00;0.62;0.00;0.00;0.62;6.63;3.67;;;25.30;33.40;;;;;;2253220;61;20720;-55
2021/08/14 05:09:03;0.00;0.00;0.62;0.00;0.00;0.62;4.67;3.17;;;25.20;33.40;;;;;;2252707;61;20392;-57
2021/08/14 05:11:48;0.00;0.00;0.62;0.00;0.00;0.62;7.47;3.40;;;25.20;33.50;;;;;;2253541;61;20411;-50
2021/08/14 05:14:34;0.00;0.00;0.62;0.00;0.00;0.62;7.17;3.47;;;25.20;33.50;;;;;;2252837;61;20566;-53
2021/08/14 05:17:19;0.00;0.00;0.62;0.00;0.00;0.62;5.83;3.53;;;25.20;33.60;;;;;;2255609;61;20362;-53
2021/08/14 05:20:06;0.00;0.00;0.62;0.00;0.00;0.62;7.30;3.40;;;25.20;33.80;;;;;;2253442;61;20363;-51
2021/08/14 05:22:51;0.00;0.00;0.62;0.00;0.00;0.62;6.10;3.43;;;25.20;33.90;;;;;;2253105;61;20391;-53
2021/08/14 05:25:35;0.00;0.00;0.62;0.00;0.00;0.62;5.97;3.67;;;25.10;33.80;;;;;;2253481;61;20410;-52
2021/08/14 05:28:22;0.00;0.00;0.62;0.00;0.00;0.62;8.37;3.17;;;25.10;33.90;;;;;;2253124;61;20388;-51
2021/08/14 05:31:06;0.00;0.00;0.62;0.00;0.00;0.62;5.40;3.30;;;25.10;33.90;;;;;;2252696;61;20599;-52
2021/08/14 05:33:51;0.00;0.00;0.62;0.00;0.00;0.62;5.63;3.33;;;25.10;33.90;;;;;;2253489;61;20640;-51
2021/08/14 05:36:37;0.00;0.00;0.62;0.00;0.00;0.62;4.23;3.00;;;25.10;34.00;;;;;;2252796;61;20360;-52
2021/08/14 05:39:21;0.00;0.00;0.62;0.00;0.00;0.62;7.20;3.63;;;25.00;34.00;;;;;;2253843;61;20363;-53
2021/08/14 05:42:06;0.00;0.00;0.62;0.00;0.00;0.62;5.43;3.30;;;25.00;34.00;;;;;;2254186;61;20762;-50
2021/08/14 05:44:50;0.00;0.00;0.62;0.00;0.00;0.62;4.87;3.20;;;25.00;34.70;;;;;;2253564;61;20723;-50
2021/08/14 05:47:35;0.00;0.00;0.62;0.00;0.00;0.62;7.70;3.60;;;25.00;34.10;;;;;;2254147;61;20491;-53
2021/08/14 05:50:19;0.00;0.00;0.62;0.00;0.00;0.62;8.33;4.13;;;25.00;34.10;;;;;;2253508;61;20380;-51
2021/08/14 05:53:05;0.00;0.00;0.62;0.00;0.00;0.62;5.07;2.80;;;24.90;34.10;;;;;;2253433;61;20788;-53
2021/08/14 05:55:50;0.00;0.00;0.62;0.00;0.00;0.62;6.17;2.97;;;24.90;34.20;;;;;;2254147;61;20383;-53
2021/08/14 05:58:35;0.00;0.00;0.62;0.00;0.00;0.62;8.07;3.37;;;24.90;34.30;;;;;;2255867;61;20403;-53
2021/08/14 06:01:19;0.00;0.00;0.62;0.00;0.00;0.62;4.67;2.77;;;24.90;34.30;;;;;;2253813;61;20794;-54
2021/08/14 06:04:04;0.00;0.00;0.62;0.00;0.00;0.62;7.83;3.23;;;24.90;34.30;;;;;;2254108;61;20415;-51
2021/08/14 06:06:49;0.00;0.00;0.62;0.00;0.00;0.62;7.43;2.83;;;24.90;34.30;;;;;;2255728;61;20723;-50
2021/08/14 06:09:35;0.00;0.00;0.62;0.00;0.00;0.62;9.90;2.90;;;24.90;34.30;;;;;;2253693;61;20391;-53
2021/08/14 06:12:19;0.00;0.00;0.62;0.00;0.00;0.62;7.50;3.13;;;24.80;34.30;;;;;;2253555;61;20403;-51
2021/08/14 06:15:05;0.00;0.00;0.62;0.00;0.00;0.62;6.73;2.90;;;24.90;34.40;;;;;;2253408;61;20747;-50
2021/08/14 06:17:49;0.00;0.00;0.62;0.00;0.00;0.62;6.33;3.33;;;24.80;34.50;;;;;;2254055;61;20367;-53
2021/08/14 06:20:34;0.00;0.00;0.62;0.00;0.00;0.62;4.50;2.70;;;24.90;34.60;;;;;;2253494;61;20386;-50
2021/08/14 06:23:19;0.00;0.00;0.62;0.00;0.00;0.62;6.60;3.77;;;24.90;34.60;;;;;;2253718;61;20359;-51
2021/08/14 06:26:05;0.00;0.00;0.62;0.00;0.00;0.62;5.23;3.23;;;24.90;34.70;;;;;;2253925;61;20476;-52
2021/08/14 06:28:49;0.00;0.00;0.62;0.00;0.00;0.62;7.37;3.60;;;24.90;34.70;;;;;;2253241;61;20379;-53
2021/08/14 06:31:34;0.00;0.00;0.62;0.00;0.00;0.62;5.40;3.00;;;24.90;34.70;;;;;;2253718;61;20757;-55
2021/08/14 06:34:19;0.00;0.00;0.62;0.00;0.00;0.62;8.00;3.50;;;24.90;34.70;;;;;;2253651;61;20366;-56
2021/08/14 06:37:04;0.00;0.00;0.62;0.00;0.00;0.62;6.50;2.77;;;24.90;34.80;;;;;;2253395;61;20367;-52
2021/08/14 06:39:48;0.00;0.00;0.62;0.00;0.00;0.62;6.10;3.10;;;24.90;34.90;;;;;;2253924;61;20407;-51
2021/08/14 06:42:34;0.00;0.00;0.62;0.00;0.00;0.62;7.07;3.63;;;25.00;35.00;;;;;;2253625;61;20387;-54
2021/08/14 06:45:18;0.00;0.00;0.62;0.00;0.00;0.62;6.47;3.70;;;25.00;34.80;;;;;;2253410;61;20376;-51
2021/08/14 06:48:04;0.00;0.00;0.62;0.00;0.00;0.62;5.63;3.23;;;25.00;34.70;;;;;;2253736;61;20415;-54
2021/08/14 06:50:49;0.00;0.00;0.62;0.00;0.00;0.62;5.30;3.07;;;25.00;34.50;;;;;;2253045;61;20367;-52
2021/08/14 06:53:33;0.00;0.00;0.62;0.00;0.00;0.62;8.13;3.60;;;25.00;34.40;;;;;;2253623;61;20395;-54
2021/08/14 06:56:18;0.00;0.00;0.62;0.00;0.00;0.62;6.20;2.80;;;25.00;34.30;;;;;;2253947;61;20407;-50
2021/08/14 06:59:04;0.00;0.00;0.62;0.00;0.00;0.62;7.43;3.30;;;25.00;34.30;;;;;;2253449;61;20355;-56
2021/08/14 07:01:48;0.00;0.00;0.62;0.00;0.00;0.62;7.57;3.80;;;25.00;34.30;;;;;;2256284;61;20383;-53
2021/08/14 07:04:33;0.00;0.00;0.62;0.00;0.00;0.62;7.60;3.60;;;25.00;34.30;;;;;;2253597;61;20368;-54
2021/08/14 07:07:17;0.00;0.00;0.62;0.00;0.00;0.62;9.73;2.93;;;25.00;34.30;;;;;;2253306;61;20364;-52
2021/08/14 07:10:04;0.00;0.00;0.62;0.00;0.00;0.62;6.47;3.20;;;25.00;34.30;;;;;;2253169;61;20389;-53
2021/08/14 07:12:48;0.00;0.00;0.62;0.00;0.00;0.62;7.00;3.07;;;25.00;34.50;;;;;;2253190;61;20259;-55
2021/08/14 07:15:34;0.00;0.00;0.62;0.00;0.00;0.62;7.70;3.03;;;25.10;34.40;;;;;;2253596;61;20360;-55
2021/08/14 07:18:18;0.00;0.00;0.62;0.00;0.00;0.62;5.50;3.03;;;25.10;34.40;;;;;;2253935;61;20378;-55
2021/08/14 07:21:03;0.00;0.00;0.62;0.00;0.00;0.62;10.53;3.50;;;25.10;34.50;;;;;;2253311;61;20391;-53
2021/08/14 07:23:48;0.00;0.00;0.62;0.00;0.00;0.62;5.37;3.00;;;25.10;34.50;;;;;;2253778;61;20367;-54
2021/08/14 07:26:33;0.00;0.00;0.62;0.00;0.00;0.62;10.93;3.20;;;25.10;34.50;;;;;;2253526;61;20401;-56
2021/08/14 07:29:17;0.00;0.00;0.62;0.00;0.00;0.62;5.97;3.60;;;25.10;34.60;;;;;;2252999;61;20464;-57
2021/08/14 07:32:04;0.00;0.00;0.62;0.00;0.00;0.62;9.53;3.47;;;25.10;34.60;;;;;;2253844;61;20456;-54
2021/08/14 07:34:48;0.00;0.00;0.62;0.00;0.00;0.62;7.23;3.13;;;25.10;34.60;;;;;;2253436;61;20523;-55
2021/08/14 07:37:33;0.00;0.00;0.62;0.00;0.00;0.62;8.70;3.83;;;25.20;34.70;;;;;;2253389;61;20379;-54
2021/08/14 07:40:20;0.00;0.00;0.62;0.00;0.00;0.62;6.67;3.43;;;25.20;34.60;;;;;;2253769;61;20356;-53
2021/08/14 07:43:07;0.00;0.00;0.62;0.00;0.00;0.62;8.57;3.07;;;25.20;34.50;;;;;;2253222;61;20403;-55
2021/08/14 07:45:51;0.00;0.00;0.62;0.00;0.00;0.62;7.47;3.13;;;25.20;34.60;;;;;;2253524;61;20368;-51
2021/08/14 07:48:37;0.00;0.00;0.62;0.00;0.00;0.62;10.20;3.63;;;25.20;34.60;;;;;;2253309;61;20612;-54
2021/08/14 07:51:22;0.00;0.00;0.62;0.00;0.00;0.62;10.40;3.73;;;25.20;34.60;;;;;;2253002;61;20607;-52
2021/08/14 07:54:06;0.00;0.00;0.62;0.00;0.00;0.62;5.60;3.00;;;25.20;34.50;;;;;;2253745;61;20359;-56
2021/08/14 07:56:51;0.00;0.00;0.62;0.00;0.00;0.62;5.83;3.43;;;25.20;34.40;;;;;;2253488;61;20363;-51
2021/08/14 07:59:35;0.00;0.00;0.62;0.00;0.00;0.62;8.33;3.30;;;25.30;34.50;;;;;;2253151;61;20384;-55
2021/08/14 08:02:20;0.00;0.00;0.62;0.00;0.00;0.62;5.57;2.87;;;25.20;34.40;;;;;;2253769;61;20443;-53
2021/08/14 08:05:08;0.00;0.00;0.62;0.00;0.00;0.62;6.93;3.30;;;25.30;34.50;;;;;;2253203;61;20561;-56
2021/08/14 08:07:53;0.00;0.00;0.62;0.00;0.00;0.62;5.87;3.77;;;25.30;34.50;;;;;;2255813;61;20476;-57
2021/08/14 08:10:37;0.00;0.00;0.62;0.00;0.00;0.62;4.67;2.83;;;25.40;34.50;;;;;;2253141;61;20367;-56
2021/08/14 08:13:22;0.00;0.00;0.62;0.00;0.00;0.62;4.80;3.17;;;25.40;34.50;;;;;;2252976;61;20395;-58
2021/08/14 08:16:06;0.00;0.00;0.62;0.00;0.00;0.62;6.93;3.17;;;25.40;34.60;;;;;;2253705;61;20356;-53
2021/08/14 08:18:51;0.00;0.00;0.62;0.00;0.00;0.62;4.60;2.83;;;25.40;34.60;;;;;;2253322;61;20712;-55
2021/08/14 08:21:37;0.00;0.00;0.62;0.00;0.00;0.62;7.67;4.17;;;25.50;34.50;;;;;;2253091;61;20483;-56
2021/08/14 08:24:21;0.00;0.00;0.62;0.00;0.00;0.62;6.27;3.90;;;25.50;34.50;;;;;;2253730;61;20363;-54
2021/08/14 08:27:06;0.00;0.00;0.62;0.00;0.00;0.62;6.47;4.30;;;25.50;34.40;;;;;;2252891;61;20367;-54
2021/08/14 08:29:51;0.00;0.00;0.62;0.00;0.00;0.62;6.43;3.50;;;25.60;34.40;;;;;;2253234;61;20616;-55
2021/08/14 08:32:36;0.00;0.00;0.62;0.00;0.00;0.62;7.60;3.07;;;25.60;34.40;;;;;;2253714;61;20646;-54
2021/08/14 08:35:21;0.00;0.00;0.62;0.00;0.00;0.62;6.90;4.00;;;25.60;34.30;;;;;;2253001;61;20731;-52
2021/08/14 08:38:07;0.00;0.00;0.62;0.00;0.00;0.62;8.47;3.90;;;25.70;34.40;;;;;;2253783;61;20467;-53
2021/08/14 08:40:52;0.00;0.00;0.62;0.00;0.00;0.62;9.30;5.07;;;25.70;34.40;;;;;;2253226;61;20383;-56
2021/08/14 08:43:40;0.00;0.00;0.62;0.00;0.00;0.62;13.00;5.93;;;25.70;34.40;;;;;;2253072;61;20367;-54
2021/08/14 08:46:27;0.00;0.00;0.62;0.00;0.00;0.62;9.77;5.40;;;25.80;34.20;;;;;;2253524;61;20441;-56
2021/08/14 08:49:14;0.00;0.00;0.62;0.00;0.00;0.62;12.90;5.83;;;25.80;33.90;;;;;;2252520;61;20372;-57
2021/08/14 08:51:59;0.00;0.00;0.62;0.00;0.00;0.62;7.20;4.67;;;25.80;33.90;;;;;;2252888;61;20378;-56
2021/08/14 08:54:46;0.00;0.00;0.62;0.00;0.00;0.62;7.00;5.27;;;25.80;33.80;;;;;;2253220;61;20376;-56
2021/08/14 08:57:30;0.00;0.00;0.62;0.00;0.00;0.62;10.60;5.07;;;25.90;33.80;;;;;;2253572;61;20363;-55
2021/08/14 09:00:16;0.00;0.00;0.62;0.00;0.00;0.62;8.17;5.60;;;25.90;33.70;;;;;;2253585;61;20363;-55
2021/08/14 09:03:09;0.00;0.00;0.62;0.00;0.00;0.62;6.93;4.70;;;25.90;33.60;;;;;;2253260;61;20363;-55
2021/08/14 09:05:54;0.00;0.00;0.62;0.00;0.00;0.62;6.40;4.03;;;25.90;33.60;;;;;;2253435;61;20363;-54
2021/08/14 09:08:38;0.00;0.00;0.62;0.00;0.00;0.62;6.57;4.53;;;26.00;33.80;;;;;;2253487;61;20601;-55
2021/08/14 09:11:24;0.00;0.00;0.62;0.00;0.00;0.62;7.10;4.50;;;26.00;33.70;;;;;;2255415;61;20438;-54
2021/08/14 09:14:08;0.00;0.00;0.62;0.00;0.00;0.62;5.00;4.17;;;26.00;33.70;;;;;;2253363;61;20411;-52
2021/08/14 09:17:07;0.00;0.00;0.62;0.00;0.00;0.62;14.27;5.20;;;26.00;33.70;;;;;;2255874;61;20751;-50
2021/08/14 09:20:15;0.00;0.00;0.62;0.00;0.00;0.62;9.90;4.10;;;26.10;33.80;;;;;;2253256;61;20387;-53
2021/08/14 09:23:02;0.00;0.00;0.62;0.00;0.00;0.62;10.93;5.23;;;26.10;33.80;;;;;;2253557;61;20343;-54
2021/08/14 09:25:50;0.00;0.00;0.62;0.00;0.00;0.62;12.40;5.23;;;26.10;33.80;;;;;;2253304;61;20399;-53
2021/08/14 09:28:39;0.00;0.00;0.62;0.00;0.00;0.62;6.73;4.47;;;26.10;33.80;;;;;;2253240;61;20499;-55
2021/08/14 09:31:24;0.00;0.00;0.62;0.00;0.00;0.62;7.10;4.20;;;26.20;33.80;;;;;;2253394;61;20388;-53
2021/08/14 09:34:15;0.00;0.00;0.62;0.00;0.00;0.62;10.37;5.07;;;26.20;33.70;;;;;;2253258;61;20747;-51
2021/08/14 09:37:02;0.00;0.00;0.62;0.00;0.00;0.62;8.50;4.17;;;26.20;34.40;;;;;;2253406;61;20356;-53
2021/08/14 09:39:53;0.00;0.00;0.62;0.00;0.00;0.62;7.67;4.37;;;26.20;33.60;;;;;;2253074;61;20403;-54
2021/08/14 09:42:50;0.00;0.00;0.62;0.00;0.00;0.62;6.40;4.10;;;26.20;33.50;;;;;;2253505;61;20690;-51
2021/08/14 09:45:37;0.00;0.00;0.62;0.00;0.00;0.62;6.90;4.60;;;26.20;33.30;;;;;;2253444;61;20379;-52
2021/08/14 09:48:23;0.00;0.00;0.62;0.00;0.00;0.62;10.30;4.60;;;26.30;33.10;;;;;;2253192;61;20375;-55
2021/08/14 09:51:27;0.00;0.00;0.62;0.00;0.00;0.62;4.67;3.80;;;26.30;33.00;;;;;;2253105;61;20407;-55
2021/08/14 09:54:11;0.00;0.00;0.62;0.00;0.00;0.62;5.73;4.00;;;26.30;32.90;;;;;;2253150;61;20395;-52
2021/08/14 09:57:12;0.00;0.00;0.62;0.00;0.00;0.62;5.83;3.97;;;26.30;32.80;;;;;;2253302;61;20399;-54
2021/08/14 10:00:00;0.00;0.00;0.62;0.00;0.00;0.62;6.07;3.90;;;26.30;32.80;;;;;;2253338;61;20418;-50
2021/08/14 10:02:48;0.00;0.00;0.62;0.00;0.00;0.62;8.30;4.47;;;26.30;32.80;;;;;;2253140;61;20468;-51
2021/08/14 10:05:34;0.00;0.00;0.62;0.00;0.00;0.62;6.70;4.00;;;26.40;32.80;;;;;;2253218;61;20404;-54
2021/08/14 10:08:19;0.00;0.00;0.62;0.00;0.00;0.62;9.70;4.60;;;26.40;32.80;;;;;;2253465;61;20391;-51
2021/08/14 10:11:07;0.00;0.00;0.62;0.00;0.00;0.62;8.37;4.33;;;26.40;32.70;;;;;;2253076;61;20439;-54
2021/08/14 10:13:52;0.00;0.00;0.62;0.00;0.00;0.62;5.00;3.50;;;26.40;32.70;;;;;;2253085;61;20356;-54
2021/08/14 10:16:37;0.00;0.00;0.62;0.00;0.00;0.62;7.50;4.57;;;26.50;32.60;;;;;;2253116;61;20387;-56
2021/08/14 10:19:23;0.00;0.00;0.62;0.00;0.00;0.62;5.73;4.20;;;26.50;32.50;;;;;;2253149;61;20435;-50
2021/08/14 10:22:09;0.00;0.00;0.62;0.00;0.00;0.62;4.90;3.43;;;26.50;32.10;;;;;;2253300;61;20543;-53
2021/08/14 10:24:55;0.00;0.00;0.62;0.00;0.00;0.62;4.70;3.70;;;26.50;31.80;;;;;;2253757;61;20436;-48
2021/08/14 10:27:55;0.00;0.00;0.62;0.00;0.00;0.62;5.20;3.20;;;26.60;31.50;;;;;;2253812;61;20355;-54
2021/08/14 10:30:48;0.00;0.00;0.62;0.00;0.00;0.62;7.50;4.03;;;26.60;31.10;;;;;;2253882;61;20620;-55
2021/08/14 10:33:36;0.00;0.00;0.62;0.00;0.00;0.62;5.80;3.67;;;26.60;31.10;;;;;;2253965;61;20468;-54
2021/08/14 10:36:41;0.00;0.00;0.62;0.00;0.00;0.62;4.90;3.63;;;26.70;31.00;;;;;;2254065;61;20723;-52
2021/08/14 10:39:30;0.00;0.00;0.62;0.00;0.00;0.62;6.30;3.90;;;26.70;30.80;;;;;;2253662;61;20356;-54
2021/08/14 10:42:14;0.00;0.00;0.62;0.00;0.00;0.62;6.47;3.47;;;26.70;30.80;;;;;;2253734;61;20380;-54
2021/08/14 10:45:13;0.00;0.00;0.62;0.00;0.00;0.62;7.20;4.43;;;26.70;30.40;;;;;;2254041;61;20355;-54
2021/08/14 10:48:04;0.00;0.00;0.62;0.00;0.00;0.62;9.63;4.00;;;26.80;30.20;;;;;;2253765;61;20364;-55
2021/08/14 10:50:56;0.00;0.00;0.62;0.00;0.00;0.62;8.23;4.07;;;26.80;29.90;;;;;;2253612;61;20593;-52
2021/08/14 10:53:45;0.00;0.00;0.62;0.00;0.00;0.62;4.60;3.10;;;26.80;29.90;;;;;;2253658;61;20594;-52